createdAt,value
2017-07-19T00:01:55.954Z,100684.05
2017-07-19T00:04:25.798Z,100681.13
2017-07-19T00:06:55.573Z,100681.52
2017-07-19T00:09:25.343Z,100677.65
2017-07-19T00:11:56.067Z,100674.05
2017-07-19T00:14:25.901Z,100679.45
2017-07-19T00:16:55.702Z,100675.94
2017-07-19T00:19:25.502Z,100672.86
2017-07-19T00:21:55.327Z,100663.61
2017-07-19T00:24:25.113Z,100666.91
2017-07-19T00:26:54.839Z,100662.83
2017-07-19T00:29:24.776Z,100663.46
2017-07-19T00:31:54.590Z,100663.61
2017-07-19T00:34:24.906Z,100666.42
2017-07-19T00:36:54.729Z,100662.18
2017-07-19T00:39:24.521Z,100651.89
2017-07-19T00:41:54.286Z,100649.77
2017-07-19T00:44:29.624Z,100653.95
2017-07-19T00:47:00.415Z,100647.62
2017-07-19T00:49:30.137Z,100645.03
2017-07-19T00:51:59.838Z,100643.35
2017-07-19T00:54:29.599Z,100651.19
2017-07-19T00:56:59.353Z,100644.78
2017-07-19T00:59:29.162Z,100640.72
2017-07-19T01:01:58.849Z,100637.02
2017-07-19T01:04:28.749Z,100638.96
2017-07-19T01:06:58.538Z,100643.08
2017-07-19T01:09:28.282Z,100634.52
2017-07-19T01:11:58.934Z,100639.63
2017-07-19T01:14:28.754Z,100631.67
2017-07-19T01:16:58.522Z,100626.30
2017-07-19T01:19:28.249Z,100626.89
2017-07-19T01:21:57.988Z,100624.92
2017-07-19T01:24:27.764Z,100619.41
2017-07-19T01:26:57.535Z,100621.04
2017-07-19T01:29:27.495Z,100619.97
2017-07-19T01:31:57.311Z,100619.02
2017-07-19T01:34:27.129Z,100621.16
2017-07-19T01:36:56.886Z,100621.33
2017-07-19T01:39:26.658Z,100625.78
2017-07-19T01:41:56.008Z,100618.00
2017-07-19T01:44:25.807Z,100621.16
2017-07-19T01:46:55.859Z,100620.02
2017-07-19T01:49:25.638Z,100612.34
2017-07-19T01:51:55.426Z,100614.94
2017-07-19T01:54:25.149Z,100623.39
2017-07-19T01:56:54.120Z,100620.11
2017-07-19T01:59:23.895Z,100618.56
2017-07-19T02:01:53.664Z,100617.50
2017-07-19T02:04:23.686Z,100613.47
2017-07-19T02:06:53.828Z,100615.02
2017-07-19T02:09:23.528Z,100613.42
2017-07-19T02:11:53.258Z,100604.61
2017-07-19T02:14:23.440Z,100604.83
2017-07-19T02:16:53.224Z,100614.80
2017-07-19T02:19:22.998Z,100608.41
2017-07-19T02:21:52.715Z,100602.38
2017-07-19T02:24:22.558Z,100611.98
2017-07-19T02:26:52.341Z,100614.73
2017-07-19T02:29:22.071Z,100603.97
2017-07-19T02:31:52.405Z,100593.34
2017-07-19T02:34:22.221Z,100589.73
2017-07-19T02:36:52.567Z,100577.86
2017-07-19T02:39:22.519Z,100577.78
2017-07-19T02:41:52.566Z,100574.43
2017-07-19T02:44:22.308Z,100572.73
2017-07-19T02:46:52.780Z,100562.74
2017-07-19T02:49:23.241Z,100564.06
2017-07-19T02:51:52.984Z,100560.36
2017-07-19T02:54:22.778Z,100561.69
2017-07-19T02:56:52.594Z,100562.88
2017-07-19T02:59:22.371Z,100567.20
2017-07-19T03:01:52.146Z,100566.94
2017-07-19T03:04:22.031Z,100572.86
2017-07-19T03:06:51.782Z,100572.41
2017-07-19T03:09:21.664Z,100576.56
2017-07-19T03:11:52.348Z,100571.39
2017-07-19T03:14:22.107Z,100571.02
2017-07-19T03:16:52.427Z,100573.63
2017-07-19T03:19:22.939Z,100571.49
2017-07-19T03:21:52.696Z,100573.80
2017-07-19T03:24:22.510Z,100576.89
2017-07-19T03:26:52.201Z,100580.87
2017-07-19T03:29:21.986Z,100577.70
2017-07-19T03:31:51.850Z,100586.47
2017-07-19T03:34:21.561Z,100589.12
2017-07-19T03:36:51.281Z,100588.14
2017-07-19T03:39:20.991Z,100587.71
2017-07-19T03:41:50.729Z,100590.88
2017-07-19T03:44:20.420Z,100589.29
2017-07-19T03:46:50.167Z,100588.91
2017-07-19T03:49:19.951Z,100588.30
2017-07-19T03:51:53.600Z,100585.14
2017-07-19T03:54:26.566Z,100588.66
2017-07-19T03:56:57.055Z,100595.80
2017-07-19T03:59:26.783Z,100588.14
2017-07-19T04:01:56.479Z,100594.86
2017-07-19T04:04:26.238Z,100588.36
2017-07-19T04:06:56.010Z,100591.09
2017-07-19T04:09:25.776Z,100577.42
2017-07-19T04:11:55.570Z,100582.89
2017-07-19T04:14:25.992Z,100581.38
2017-07-19T04:16:55.587Z,100581.98
2017-07-19T04:19:25.414Z,100579.41
2017-07-19T04:21:55.128Z,100577.70
2017-07-19T04:24:24.834Z,100573.35
2017-07-19T04:26:54.587Z,100581.80
2017-07-19T04:29:24.369Z,100578.73
2017-07-19T04:31:54.103Z,100578.73
2017-07-19T04:34:23.917Z,100576.63
2017-07-19T04:36:55.886Z,100577.29
2017-07-19T04:39:27.814Z,100581.88
2017-07-19T04:41:57.889Z,100579.17
2017-07-19T04:44:27.679Z,100576.94
2017-07-19T04:46:56.663Z,100582.25
2017-07-19T04:49:26.480Z,100583.05
2017-07-19T04:51:56.215Z,100574.75
2017-07-19T04:54:30.935Z,100581.05
2017-07-19T04:57:01.998Z,100581.33
2017-07-19T04:59:31.620Z,100577.78
2017-07-19T05:02:02.238Z,100564.53
2017-07-19T05:04:32.070Z,100564.81
2017-07-19T05:07:01.871Z,100571.52
2017-07-19T05:09:31.661Z,100570.75
2017-07-19T05:12:01.410Z,100566.36
2017-07-19T05:14:31.171Z,100566.72
2017-07-19T05:17:00.943Z,100563.59
2017-07-19T05:19:30.726Z,100562.73
2017-07-19T05:22:00.449Z,100568.62
2017-07-19T05:24:30.259Z,100568.71
2017-07-19T05:27:00.097Z,100561.39
2017-07-19T05:29:29.912Z,100561.40
2017-07-19T05:31:59.710Z,100570.42
2017-07-19T05:34:29.537Z,100571.56
2017-07-19T05:36:59.333Z,100573.08
2017-07-19T05:39:29.075Z,100574.38
2017-07-19T05:41:58.851Z,100573.79
2017-07-19T05:44:28.605Z,100576.73
2017-07-19T05:46:58.395Z,100578.55
2017-07-19T05:49:28.257Z,100578.91
2017-07-19T05:51:58.014Z,100577.38
2017-07-19T05:54:29.175Z,100580.28
2017-07-19T05:56:59.343Z,100592.77
2017-07-19T05:59:29.714Z,100590.20
2017-07-19T06:01:59.415Z,100587.75
2017-07-19T06:04:29.168Z,100587.78
2017-07-19T06:06:58.989Z,100585.69
2017-07-19T06:09:28.779Z,100586.00
2017-07-19T06:11:58.553Z,100589.63
2017-07-19T06:14:28.298Z,100593.25
2017-07-19T06:16:58.048Z,100589.41
2017-07-19T06:19:27.844Z,100586.58
2017-07-19T06:21:57.670Z,100581.72
2017-07-19T06:24:27.466Z,100587.88
2017-07-19T06:26:57.339Z,100588.38
2017-07-19T06:29:27.098Z,100593.43
2017-07-19T06:31:56.813Z,100587.11
2017-07-19T06:34:26.549Z,100591.56
2017-07-19T06:36:56.325Z,100582.94
2017-07-19T06:39:26.158Z,100581.67
2017-07-19T06:41:55.871Z,100578.89
2017-07-19T06:44:25.586Z,100583.44
2017-07-19T06:46:55.274Z,100577.30
2017-07-19T06:49:25.060Z,100576.83
2017-07-19T06:51:54.811Z,100572.13
2017-07-19T06:54:24.346Z,100578.16
2017-07-19T06:56:54.088Z,100576.34
2017-07-19T06:59:23.887Z,100574.07
2017-07-19T07:01:53.713Z,100579.70
2017-07-19T07:04:23.491Z,100571.81
2017-07-19T07:06:53.255Z,100567.22
2017-07-19T07:09:23.117Z,100565.55
2017-07-19T07:11:52.842Z,100554.58
2017-07-19T07:14:22.590Z,100559.69
2017-07-19T07:16:52.383Z,100556.09
2017-07-19T07:19:22.291Z,100547.41
2017-07-19T07:24:28.663Z,100540.32
2017-07-19T07:26:58.421Z,100548.70
2017-07-19T07:29:28.086Z,100540.92
2017-07-19T07:31:57.851Z,100536.78
2017-07-19T07:34:27.634Z,100538.16
2017-07-19T07:36:57.424Z,100531.91
2017-07-19T07:39:27.152Z,100538.27
2017-07-19T07:41:56.887Z,100529.63
2017-07-19T07:44:26.590Z,100523.15
2017-07-19T07:46:56.307Z,100529.27
2017-07-19T07:49:26.033Z,100523.80
2017-07-19T07:51:55.833Z,100528.97
2017-07-19T07:54:25.601Z,100522.61
2017-07-19T07:56:55.362Z,100521.23
2017-07-19T07:59:25.106Z,100518.93
2017-07-19T08:01:54.887Z,100513.20
2017-07-19T08:04:24.681Z,100512.22
2017-07-19T08:06:54.397Z,100514.63
2017-07-19T08:09:24.181Z,100515.91
2017-07-19T08:11:53.926Z,100512.56
2017-07-19T08:14:23.724Z,100508.46
2017-07-19T08:16:53.500Z,100506.44
2017-07-19T08:19:23.339Z,100505.66
2017-07-19T08:21:53.125Z,100506.61
2017-07-19T08:24:23.750Z,100515.59
2017-07-19T08:26:55.703Z,100512.77
2017-07-19T08:29:25.759Z,100510.11
2017-07-19T08:31:55.556Z,100502.09
2017-07-19T08:34:25.293Z,100504.32
2017-07-19T08:36:55.796Z,100506.47
2017-07-19T08:39:25.518Z,100503.22
2017-07-19T08:41:55.355Z,100497.23
2017-07-19T08:44:25.190Z,100500.23
2017-07-19T08:46:54.937Z,100493.75
2017-07-19T08:49:24.647Z,100489.51
2017-07-19T08:51:54.363Z,100484.46
2017-07-19T08:54:24.149Z,100484.63
2017-07-19T08:56:53.948Z,100485.31
2017-07-19T08:59:23.772Z,100479.41
2017-07-19T09:01:53.581Z,100476.92
2017-07-19T09:04:23.389Z,100468.25
2017-07-19T09:06:53.225Z,100470.86
2017-07-19T09:09:22.988Z,100467.05
2017-07-19T09:11:53.425Z,100467.30
2017-07-19T09:14:23.437Z,100468.91
2017-07-19T09:16:53.162Z,100461.78
2017-07-19T09:19:22.877Z,100453.93
2017-07-19T09:21:52.597Z,100451.34
2017-07-19T09:24:22.961Z,100444.78
2017-07-19T09:26:53.347Z,100434.64
2017-07-19T09:29:23.215Z,100425.28
2017-07-19T09:31:52.986Z,100418.17
2017-07-19T09:34:22.682Z,100418.25
2017-07-19T09:36:52.426Z,100419.03
2017-07-19T09:39:22.209Z,100413.56
2017-07-19T09:41:52.061Z,100410.29
2017-07-19T09:44:21.830Z,100399.33
2017-07-19T09:46:52.238Z,100402.48
2017-07-19T09:49:21.992Z,100405.72
2017-07-19T09:51:51.727Z,100391.98
2017-07-19T09:54:21.454Z,100390.35
2017-07-19T09:56:51.270Z,100398.83
2017-07-19T09:59:21.159Z,100390.34
2017-07-19T10:01:50.874Z,100383.36
2017-07-19T10:04:20.690Z,100389.53
2017-07-19T10:06:50.426Z,100385.50
2017-07-19T10:09:20.198Z,100383.81
2017-07-19T10:11:50.004Z,100373.99
2017-07-19T10:14:19.762Z,100365.73
2017-07-19T10:16:49.518Z,100368.93
2017-07-19T10:19:19.353Z,100356.43
2017-07-19T10:21:49.067Z,100362.18
2017-07-19T10:24:18.805Z,100352.15
2017-07-19T10:26:48.539Z,100348.53
2017-07-19T10:29:19.055Z,100339.47
2017-07-19T10:31:48.826Z,100342.31
2017-07-19T10:34:18.620Z,100342.16
2017-07-19T10:36:48.992Z,100348.77
2017-07-19T10:39:18.794Z,100337.62
2017-07-19T10:41:48.542Z,100343.61
2017-07-19T10:44:18.368Z,100342.48
2017-07-19T10:46:48.095Z,100340.85
2017-07-19T10:49:17.895Z,100337.23
2017-07-19T10:51:47.633Z,100335.18
2017-07-19T10:54:17.933Z,100334.84
2017-07-19T10:56:47.707Z,100335.06
2017-07-19T10:59:17.445Z,100333.51
2017-07-19T11:01:47.170Z,100324.05
2017-07-19T11:04:16.897Z,100320.61
2017-07-19T11:06:46.632Z,100320.88
2017-07-19T11:09:16.213Z,100314.70
2017-07-19T11:11:46.101Z,100308.61
2017-07-19T11:14:15.898Z,100293.59
2017-07-19T11:16:45.662Z,100289.27
2017-07-19T11:19:15.386Z,100285.16
2017-07-19T11:21:45.113Z,100293.50
2017-07-19T11:24:14.905Z,100291.31
2017-07-19T11:26:44.676Z,100297.64
2017-07-19T11:29:14.438Z,100288.02
2017-07-19T11:31:46.119Z,100296.34
2017-07-19T11:34:15.927Z,100303.22
2017-07-19T11:36:45.622Z,100300.81
2017-07-19T11:39:15.371Z,100295.28
2017-07-19T11:41:45.151Z,100281.55
2017-07-19T11:44:14.992Z,100280.91
2017-07-19T11:46:44.790Z,100281.74
2017-07-19T11:49:14.523Z,100279.77
2017-07-19T11:51:44.287Z,100276.05
2017-07-19T11:54:14.026Z,100273.47
2017-07-19T11:56:43.766Z,100271.44
2017-07-19T11:59:13.558Z,100277.00
2017-07-19T12:01:43.302Z,100263.13
2017-07-19T12:04:13.058Z,100273.41
2017-07-19T12:06:42.838Z,100264.09
2017-07-19T12:09:12.623Z,100259.34
2017-07-19T12:11:42.314Z,100253.73
2017-07-19T12:14:12.077Z,100257.98
2017-07-19T12:16:41.877Z,100256.61
2017-07-19T12:19:11.703Z,100255.66
2017-07-19T12:21:41.479Z,100252.69
2017-07-19T12:24:11.257Z,100254.11
2017-07-19T12:26:41.044Z,100252.64
2017-07-19T12:29:10.846Z,100245.37
2017-07-19T12:31:40.679Z,100248.09
2017-07-19T12:34:17.598Z,100247.05
2017-07-19T12:36:47.301Z,100241.97
2017-07-19T12:39:17.059Z,100239.67
2017-07-19T12:41:46.800Z,100241.58
2017-07-19T12:44:17.104Z,100240.69
2017-07-19T12:46:46.798Z,100242.34
2017-07-19T12:49:16.559Z,100231.55
2017-07-19T12:51:46.322Z,100230.05
2017-07-19T12:54:16.094Z,100228.98
2017-07-19T12:56:45.861Z,100229.86
2017-07-19T12:59:15.637Z,100231.50
2017-07-19T13:01:45.387Z,100222.20
2017-07-19T13:04:15.139Z,100218.94
2017-07-19T13:06:44.971Z,100211.12
2017-07-19T13:09:14.761Z,100206.02
2017-07-19T13:11:44.594Z,100207.91
2017-07-19T13:14:14.428Z,100207.36
2017-07-19T13:16:44.248Z,100198.64
2017-07-19T13:19:14.021Z,100187.60
2017-07-19T13:21:43.725Z,100186.63
2017-07-19T13:24:13.450Z,100178.84
2017-07-19T13:26:43.274Z,100174.66
2017-07-19T13:29:12.983Z,100172.67
2017-07-19T13:31:42.797Z,100158.47
2017-07-19T13:34:12.662Z,100155.85
2017-07-19T13:36:42.426Z,100156.16
2017-07-19T13:39:12.150Z,100162.20
2017-07-19T13:41:41.976Z,100158.70
2017-07-19T13:44:11.669Z,100155.16
2017-07-19T13:46:41.708Z,100161.80
2017-07-19T13:49:12.178Z,100155.87
2017-07-19T13:51:42.184Z,100152.62
2017-07-19T13:54:11.950Z,100151.80
2017-07-19T13:56:41.693Z,100143.23
2017-07-19T13:59:11.514Z,100140.52
2017-07-19T14:01:41.285Z,100135.64
2017-07-19T14:04:11.091Z,100141.14
2017-07-19T14:06:40.890Z,100135.11
2017-07-19T14:09:10.685Z,100132.11
2017-07-19T14:11:40.542Z,100127.27
2017-07-19T14:14:10.266Z,100119.48
2017-07-19T14:16:40.091Z,100124.82
2017-07-19T14:19:09.809Z,100128.11
2017-07-19T14:21:39.638Z,100124.45
2017-07-19T14:24:09.323Z,100122.55
2017-07-19T14:26:39.183Z,100121.32
2017-07-19T14:29:08.972Z,100107.89
2017-07-19T14:31:38.731Z,100105.69
2017-07-19T14:34:08.600Z,100102.34
2017-07-19T14:36:38.358Z,100087.71
2017-07-19T14:39:11.898Z,100083.70
2017-07-19T14:41:42.759Z,100084.09
2017-07-19T14:44:13.421Z,100081.09
2017-07-19T14:46:46.280Z,100079.98
2017-07-19T14:49:18.178Z,100071.81
2017-07-19T14:51:50.080Z,100067.63
2017-07-19T14:54:21.152Z,100064.43
2017-07-19T14:56:52.540Z,100064.08
2017-07-19T14:59:25.550Z,100056.35
2017-07-19T15:01:56.542Z,100045.32
2017-07-19T15:04:26.952Z,100040.77
2017-07-19T15:06:57.192Z,100035.09
2017-07-19T15:09:27.032Z,100025.73
2017-07-19T15:11:57.273Z,100025.56
2017-07-19T15:14:29.725Z,100019.64
2017-07-19T15:17:02.564Z,100016.63
2017-07-19T15:19:36.053Z,100016.02
2017-07-19T15:22:07.046Z,100012.66
2017-07-19T15:24:36.809Z,100011.73
2017-07-19T15:27:06.774Z,100005.64
2017-07-19T15:29:38.713Z,99997.98
2017-07-19T15:32:12.095Z,99999.73
2017-07-19T15:34:42.578Z,99998.19
2017-07-19T15:37:12.367Z,99995.59
2017-07-19T15:39:43.086Z,99992.57
2017-07-19T15:42:18.719Z,99986.28
2017-07-19T15:44:49.721Z,99987.03
2017-07-19T15:47:19.519Z,99987.64
2017-07-19T15:49:51.166Z,99995.47
2017-07-19T15:52:21.911Z,99994.30
2017-07-19T15:54:51.659Z,99988.20
2017-07-19T15:57:21.319Z,99989.34
2017-07-19T15:59:55.781Z,99985.37
2017-07-19T16:02:27.079Z,99992.10
2017-07-19T16:04:56.849Z,99982.98
2017-07-19T16:07:26.652Z,99986.20
2017-07-19T16:09:56.620Z,99985.58
2017-07-19T16:12:27.061Z,99987.45
2017-07-19T16:14:56.834Z,99978.57
2017-07-19T16:17:26.734Z,99978.78
2017-07-19T16:19:56.550Z,99980.16
2017-07-19T16:22:26.913Z,99970.45
2017-07-19T16:24:56.698Z,99967.44
2017-07-19T16:27:27.061Z,99974.94
2017-07-19T16:29:57.389Z,99977.49
2017-07-19T16:32:27.747Z,99968.56
2017-07-19T16:34:57.664Z,99968.02
2017-07-19T16:37:27.387Z,99964.09
2017-07-19T16:39:57.156Z,99954.97
2017-07-19T16:42:26.940Z,99958.17
2017-07-19T16:44:56.627Z,99953.45
2017-07-19T16:47:26.523Z,99946.80
2017-07-19T16:49:56.799Z,99944.32
2017-07-19T16:52:27.091Z,99945.98
2017-07-19T16:54:56.839Z,99940.86
2017-07-19T16:57:26.799Z,99951.27
2017-07-19T16:59:56.831Z,99949.72
2017-07-19T17:02:26.954Z,99932.03
2017-07-19T17:04:57.365Z,99939.98
2017-07-19T17:07:29.689Z,99938.63
2017-07-19T17:10:02.160Z,99937.47
2017-07-19T17:12:34.913Z,99933.09
2017-07-19T17:15:05.567Z,99930.69
2017-07-19T17:17:37.183Z,99929.77
2017-07-19T17:20:06.870Z,99936.59
2017-07-19T17:22:36.617Z,99935.05
2017-07-19T17:25:06.377Z,99931.09
2017-07-19T17:27:36.119Z,99931.48
2017-07-19T17:30:06.423Z,99930.08
2017-07-19T17:32:36.255Z,99929.12
2017-07-19T17:35:05.999Z,99923.56
2017-07-19T17:37:35.780Z,99923.45
2017-07-19T17:40:05.642Z,99930.45
2017-07-19T17:42:35.394Z,99928.17
2017-07-19T17:45:05.125Z,99924.55
2017-07-19T17:47:40.167Z,99929.42
2017-07-19T17:50:09.901Z,99935.55
2017-07-19T17:52:39.694Z,99927.02
2017-07-19T17:55:09.406Z,99927.09
2017-07-19T17:57:39.169Z,99925.35
2017-07-19T18:00:08.980Z,99923.07
2017-07-19T18:02:38.776Z,99924.94
2017-07-19T18:05:08.607Z,99928.43
2017-07-19T18:07:38.282Z,99927.27
2017-07-19T18:10:08.017Z,99926.23
2017-07-19T18:12:37.818Z,99924.05
2017-07-19T18:15:07.701Z,99912.13
2017-07-19T18:17:37.449Z,99911.08
2017-07-19T18:20:07.320Z,99910.27
2017-07-19T18:22:37.081Z,99909.24
2017-07-19T18:25:06.794Z,99911.05
2017-07-19T18:27:36.865Z,99917.41
2017-07-19T18:30:06.635Z,99912.59
2017-07-19T18:32:36.448Z,99920.19
2017-07-19T18:35:07.084Z,99923.36
2017-07-19T18:37:37.142Z,99928.31
2017-07-19T18:40:06.889Z,99922.26
2017-07-19T18:42:36.597Z,99922.19
2017-07-19T18:45:06.384Z,99932.42
2017-07-19T18:47:36.154Z,99938.18
2017-07-19T18:50:11.212Z,99942.03
2017-07-19T18:52:40.990Z,99936.09
2017-07-19T18:55:11.524Z,99938.62
2017-07-19T18:57:41.980Z,99932.05
2017-07-19T19:00:11.862Z,99920.64
2017-07-19T19:02:42.156Z,99921.75
2017-07-19T19:05:12.960Z,99927.01
2017-07-19T19:07:42.797Z,99935.44
2017-07-19T19:10:12.588Z,99942.72
2017-07-19T19:12:42.341Z,99938.05
2017-07-19T19:15:12.129Z,99933.87
2017-07-19T19:17:41.894Z,99931.17
2017-07-19T19:20:11.462Z,99938.36
2017-07-19T19:22:41.374Z,99943.05
2017-07-19T19:25:11.714Z,99940.00
2017-07-19T19:27:42.062Z,99938.97
2017-07-19T19:30:11.877Z,99930.04
2017-07-19T19:32:42.118Z,99939.66
2017-07-19T19:35:11.933Z,99937.45
2017-07-19T19:37:41.796Z,99950.50
2017-07-19T19:40:11.509Z,99959.61
2017-07-19T19:42:41.430Z,99957.98
2017-07-19T19:45:11.142Z,99967.91
2017-07-19T19:47:41.078Z,99966.09
2017-07-19T19:50:10.863Z,99965.47
2017-07-19T19:52:45.694Z,99971.04
2017-07-19T19:55:15.401Z,99971.27
2017-07-19T19:57:45.099Z,99974.33
2017-07-19T20:00:14.875Z,99981.92
2017-07-19T20:02:44.475Z,100024.58
2017-07-19T20:05:14.319Z,100119.52
2017-07-19T20:07:44.094Z,100136.48
2017-07-19T20:10:13.903Z,100135.28
2017-07-19T20:12:43.677Z,100160.09
2017-07-19T20:15:13.443Z,100163.61
2017-07-19T20:17:43.343Z,100197.39
2017-07-19T20:20:13.075Z,100243.14
2017-07-19T20:22:42.762Z,100240.63
2017-07-19T20:25:13.879Z,100243.31
2017-07-19T20:27:43.945Z,100260.36
2017-07-19T20:30:13.802Z,100290.15
2017-07-19T20:32:43.625Z,100310.64
2017-07-19T20:35:14.142Z,100318.82
2017-07-19T20:37:43.838Z,100317.78
2017-07-19T20:40:13.547Z,100315.66
2017-07-19T20:42:43.299Z,100319.39
2017-07-19T20:45:13.108Z,100322.95
2017-07-19T20:47:43.571Z,100319.05
2017-07-19T20:50:13.330Z,100323.35
2017-07-19T20:52:43.062Z,100324.63
2017-07-19T20:55:13.486Z,100315.17
2017-07-19T20:57:43.294Z,100314.90
2017-07-19T21:00:13.970Z,100315.91
2017-07-19T21:02:43.736Z,100326.78
2017-07-19T21:05:13.434Z,100325.16
2017-07-19T21:07:43.187Z,100316.09
2017-07-19T21:10:13.423Z,100319.73
2017-07-19T21:12:43.293Z,100331.06
2017-07-19T21:15:13.168Z,100338.53
2017-07-19T21:17:43.246Z,100343.07
2017-07-19T21:20:13.680Z,100347.13
2017-07-19T21:22:42.681Z,100360.95
2017-07-19T21:25:12.501Z,100360.95
2017-07-19T21:27:42.402Z,100354.34
2017-07-19T21:30:14.064Z,100336.83
2017-07-19T21:32:43.905Z,100322.92
2017-07-19T21:35:14.004Z,100309.76
2017-07-19T21:37:46.775Z,100289.36
2017-07-19T21:40:16.597Z,100278.03
2017-07-19T21:42:46.320Z,100277.55
2017-07-19T21:45:16.245Z,100281.52
2017-07-19T21:47:46.132Z,100286.78
2017-07-19T21:50:15.968Z,100296.17
2017-07-19T21:52:45.780Z,100287.87
2017-07-19T21:55:15.588Z,100278.64
2017-07-19T21:57:45.547Z,100272.17
2017-07-19T22:00:15.437Z,100262.13
2017-07-19T22:02:45.247Z,100251.52
2017-07-19T22:05:15.728Z,100244.50
2017-07-19T22:07:46.520Z,100225.75
2017-07-19T22:10:16.345Z,100221.05
2017-07-19T22:12:46.769Z,100211.27
2017-07-19T22:15:16.586Z,100199.12
2017-07-19T22:17:46.492Z,100179.36
2017-07-19T22:20:16.315Z,100159.27
2017-07-19T22:22:46.809Z,100153.99
2017-07-19T22:25:16.771Z,100139.05
2017-07-19T22:27:46.689Z,100130.13
2017-07-19T22:30:16.497Z,100106.08
2017-07-19T22:32:46.313Z,100060.61
2017-07-19T22:35:16.134Z,100015.93
2017-07-19T22:37:45.940Z,100007.74
2017-07-19T22:40:15.768Z,100052.99
2017-07-19T22:42:45.622Z,100091.56
2017-07-19T22:45:16.207Z,100076.09
2017-07-19T22:47:46.882Z,100062.75
2017-07-19T22:50:16.770Z,100055.87
2017-07-19T22:52:46.577Z,100040.57
2017-07-19T22:55:16.402Z,100051.42
2017-07-19T22:57:46.208Z,100062.76
2017-07-19T23:00:16.752Z,100052.97
2017-07-19T23:02:47.582Z,100069.86
2017-07-19T23:05:17.406Z,100081.45
2017-07-19T23:07:47.217Z,100086.95
2017-07-19T23:10:17.549Z,100071.77
2017-07-19T23:12:47.356Z,100071.33
2017-07-19T23:15:17.689Z,100077.02
2017-07-19T23:17:47.487Z,100094.80
2017-07-19T23:20:17.310Z,100086.95
2017-07-19T23:22:47.133Z,100087.89
2017-07-19T23:25:16.966Z,100075.89
2017-07-19T23:27:46.866Z,100077.56
2017-07-19T23:30:16.681Z,100070.41
2017-07-19T23:32:46.992Z,100075.70
2017-07-19T23:35:16.824Z,100074.98
2017-07-19T23:37:46.651Z,100072.66
2017-07-19T23:40:16.672Z,100072.66
2017-07-19T23:42:46.590Z,100057.02
2017-07-19T23:45:16.424Z,100053.91
2017-07-19T23:47:46.968Z,100052.08
2017-07-19T23:50:16.866Z,100051.19
2017-07-19T23:52:47.882Z,100050.48
2017-07-19T23:55:17.719Z,100054.19
2017-07-19T23:57:47.716Z,100044.22
